Time;durP1;ratioP1;P1;durP2;ratioP2;P2;SDS_P1;SDS_P2;PMS_P1;PMS_P2;Temp;Humidity;BMP_temperature;BMP_pressure;BME280_temperature;BME280_humidity;BME280_pressure;Samples;Min_cycle;Max_cycle;Signal;HPM_P1;HPM_P2
2021/04/22 00:03:34;;;;;;;6.20;1.40;;;;;;;6.01;72.16;98524.42;3744620;79;44114;-27
2021/04/22 00:08:40;;;;;;;7.00;1.17;;;;;;;5.94;73.27;98531.75;3745649;78;44469;-26
2021/04/22 00:13:47;;;;;;;3.93;1.20;;;;;;;5.83;73.33;98536.66;3745317;78;43100;-27
2021/04/22 00:18:52;;;;;;;3.90;1.27;;;;;;;5.83;73.92;98539.33;3734810;79;44079;-27
2021/04/22 00:23:58;;;;;;;8.03;1.50;;;;;;;5.62;72.59;98544.15;3741639;78;43721;-27
2021/04/22 00:29:05;;;;;;;7.17;1.60;;;;;;;5.49;73.66;98551.48;3743152;78;44085;-27
2021/04/22 00:34:11;;;;;;;4.00;1.57;;;;;;;5.38;73.42;98547.86;3742901;78;44044;-27
2021/04/22 00:39:17;;;;;;;6.67;1.63;;;;;;;5.17;75.19;98555.78;3744619;79;44577;-27
2021/04/22 00:44:23;;;;;;;8.23;1.77;;;;;;;5.07;76.10;98566.84;3739071;78;43685;-27
2021/04/22 00:49:30;;;;;;;7.00;1.33;;;;;;;4.89;76.19;98575.34;3738303;79;43666;-27
2021/04/22 00:54:39;;;;;;;10.27;1.90;;;;;;;4.90;78.04;98571.70;3740959;79;44157;-27
2021/04/22 00:59:45;;;;;;;8.23;1.57;;;;;;;4.56;76.61;98576.19;3721927;78;43991;-27
2021/04/22 01:04:51;;;;;;;7.03;1.87;;;;;;;4.28;74.99;98583.63;3738765;78;44463;-27
2021/04/22 01:09:57;;;;;;;6.20;2.17;;;;;;;4.10;75.67;98588.55;3745367;79;43986;-27
2021/04/22 01:15:06;;;;;;;10.03;1.87;;;;;;;4.03;76.75;98598.83;3744650;78;44077;-27
2021/04/22 01:20:16;;;;;;;9.20;2.33;;;;;;;3.76;77.72;98601.73;3739769;79;44048;-27
2021/04/22 01:25:25;;;;;;;7.13;1.83;;;;;;;3.61;78.89;98620.55;3746285;78;43660;-27
2021/04/22 01:30:34;;;;;;;8.13;2.10;;;;;;;3.61;78.34;98608.56;3743258;78;44035;-27
2021/04/22 01:35:43;;;;;;;6.50;1.90;;;;;;;3.51;80.43;98609.73;3746804;78;44014;-27
2021/04/22 01:40:50;;;;;;;7.00;2.00;;;;;;;3.32;81.98;98618.20;3737763;79;43690;-27
2021/04/22 01:45:56;;;;;;;8.40;2.27;;;;;;;3.24;82.26;98616.55;3747908;78;43223;-27
2021/04/22 01:51:04;;;;;;;9.47;2.10;;;;;;;3.19;84.18;98617.38;3740818;79;44214;-27
2021/04/22 01:56:10;;;;;;;8.43;1.90;;;;;;;3.10;81.82;98622.03;3745154;79;42930;-27
2021/04/22 02:01:16;;;;;;;8.37;1.70;;;;;;;3.02;83.23;98634.05;3739790;78;43682;-27
2021/04/22 02:06:22;;;;;;;9.63;2.07;;;;;;;2.95;84.00;98631.47;3740160;78;44039;-27
2021/04/22 02:11:28;;;;;;;6.57;1.83;;;;;;;2.89;84.04;98627.42;3739058;79;43381;-27
2021/04/22 02:16:33;;;;;;;14.87;2.17;;;;;;;2.80;84.72;98637.85;3741933;79;44113;-27
2021/04/22 02:21:41;;;;;;;11.00;2.60;;;;;;;2.74;84.73;98630.69;3739275;79;42689;-27
2021/04/22 02:26:46;;;;;;;13.30;2.40;;;;;;;2.61;84.33;98637.80;3747498;78;44171;-27
2021/04/22 02:31:54;;;;;;;14.70;2.43;;;;;;;2.61;84.96;98633.81;3741069;79;44071;-27
2021/04/22 02:37:00;;;;;;;8.87;2.00;;;;;;;2.55;83.98;98636.42;3737495;78;294751;-27
2021/04/22 02:42:07;;;;;;;8.13;1.93;;;;;;;2.61;83.40;98635.14;3666107;81;44040;-27
2021/04/22 02:47:15;;;;;;;9.07;2.03;;;;;;;2.45;84.64;98644.16;3664812;81;43384;-27
2021/04/22 02:52:21;;;;;;;11.93;2.40;;;;;;;2.36;86.68;98642.59;3644295;81;43305;-27
2021/04/22 02:57:30;;;;;;;8.77;2.43;;;;;;;2.32;86.79;98649.94;3671161;81;43727;-24
2021/04/22 03:02:39;;;;;;;10.43;2.87;;;;;;;2.30;86.17;98650.51;3662043;81;43688;-24
2021/04/22 03:07:45;;;;;;;9.87;2.20;;;;;;;2.26;85.77;98644.55;3667507;80;43246;-25
2021/04/22 03:12:52;;;;;;;10.40;2.50;;;;;;;2.18;86.32;98643.36;3667363;80;44014;-25
2021/04/22 03:17:58;;;;;;;10.23;2.40;;;;;;;2.04;89.27;98635.85;3670628;80;44023;-25
2021/04/22 03:23:04;;;;;;;6.90;2.03;;;;;;;1.91;90.87;98635.80;3671326;81;43992;-25
2021/04/22 03:28:12;;;;;;;9.33;2.40;;;;;;;1.80;91.89;98641.83;3726518;78;43038;-25
2021/04/22 03:33:18;;;;;;;8.57;2.40;;;;;;;1.67;94.06;98646.23;3748818;79;44082;-24
2021/04/22 03:38:26;;;;;;;11.40;2.57;;;;;;;1.63;94.21;98651.36;3750118;79;44098;-26
2021/04/22 03:43:32;;;;;;;10.50;2.27;;;;;;;1.54;94.79;98651.00;3751882;78;43678;-24
2021/04/22 03:48:38;;;;;;;9.37;2.50;;;;;;;1.46;95.63;98655.97;3750694;79;43673;-25
2021/04/22 03:53:44;;;;;;;12.10;2.53;;;;;;;1.42;96.63;98661.08;3752214;79;44015;-25
2021/04/22 03:58:51;;;;;;;16.27;2.57;;;;;;;1.35;96.91;98657.13;3751981;78;43340;-25
2021/04/22 04:03:57;;;;;;;12.17;2.73;;;;;;;1.31;97.25;98672.36;3804512;76;129672;-25
2021/04/22 04:09:06;;;;;;;13.97;2.50;;;;;;;1.27;97.10;98662.04;3835272;76;43300;-25
2021/04/22 04:14:12;;;;;;;9.27;2.23;;;;;;;1.19;98.45;98671.34;3821713;76;43728;-25
2021/04/22 04:19:17;;;;;;;7.53;2.30;;;;;;;1.17;99.16;98675.89;3827027;76;44827;-26
2021/04/22 04:24:24;;;;;;;6.60;2.67;;;;;;;1.10;100.00;98674.58;3824101;76;43722;-24
2021/04/22 04:29:30;;;;;;;17.13;3.37;;;;;;;1.12;99.94;98679.29;3779793;76;44209;-26
2021/04/22 04:34:35;;;;;;;8.63;2.50;;;;;;;1.04;100.00;98677.59;3764741;77;43725;-25
2021/04/22 04:39:41;;;;;;;15.23;2.80;;;;;;;1.06;100.00;98682.34;3770720;77;43326;-24
2021/04/22 04:44:47;;;;;;;17.17;2.93;;;;;;;1.14;100.00;98689.34;3799262;77;44112;-24
2021/04/22 04:49:52;;;;;;;8.53;2.60;;;;;;;1.17;100.00;98693.14;3776487;77;44080;-24
2021/04/22 04:54:58;;;;;;;12.17;2.57;;;;;;;1.15;100.00;98698.17;3782316;77;43722;-25
2021/04/22 05:00:07;;;;;;;13.67;2.73;;;;;;;1.25;100.00;98709.05;3795256;77;44077;-24
2021/04/22 05:05:15;;;;;;;10.40;2.50;;;;;;;1.22;100.00;98710.97;3779057;77;43440;-24
2021/04/22 05:10:20;;;;;;;9.00;2.77;;;;;;;1.29;100.00;98716.76;3776508;77;43301;-24
2021/04/22 05:15:26;;;;;;;10.47;2.90;;;;;;;1.20;100.00;98723.48;3779781;77;44096;-24
2021/04/22 05:20:32;;;;;;;13.47;2.57;;;;;;;1.14;100.00;98721.67;3775606;77;43318;-24
2021/04/22 05:25:38;;;;;;;11.07;2.67;;;;;;;1.29;100.00;98722.06;3783416;77;43702;-24
2021/04/22 05:30:45;;;;;;;11.90;2.97;;;;;;;1.22;100.00;98726.90;3755903;77;43335;-26
2021/04/22 05:35:51;;;;;;;12.77;2.47;;;;;;;1.29;100.00;98733.14;3751043;77;42877;-23
2021/04/22 05:40:57;;;;;;;13.30;3.30;;;;;;;1.19;100.00;98732.39;3748549;77;43475;-23
2021/04/22 05:46:03;;;;;;;12.43;2.70;;;;;;;1.16;100.00;98731.23;3693899;79;43510;-23
2021/04/22 05:51:09;;;;;;;11.37;3.00;;;;;;;1.17;100.00;98736.09;3621100;80;44572;-22
2021/04/22 05:56:15;;;;;;;11.23;3.10;;;;;;;1.18;100.00;98738.64;3666355;79;44018;-23
2021/04/22 06:01:21;;;;;;;15.80;2.83;;;;;;;1.19;100.00;98748.31;3671517;79;43707;-23
2021/04/22 06:06:28;;;;;;;10.30;2.93;;;;;;;1.22;100.00;98744.61;3671079;79;43726;-24
2021/04/22 06:11:33;;;;;;;16.00;3.50;;;;;;;1.27;100.00;98750.95;3756870;77;43384;-22
2021/04/22 06:16:41;;;;;;;17.10;3.67;;;;;;;1.28;100.00;98752.67;3758961;77;43392;-22
2021/04/22 06:21:47;;;;;;;12.67;3.63;;;;;;;1.40;100.00;98763.02;3755289;77;44090;-23
2021/04/22 06:26:53;;;;;;;13.63;3.53;;;;;;;1.52;100.00;98763.59;3758813;77;44069;-22
2021/04/22 06:31:59;;;;;;;10.70;3.93;;;;;;;1.71;100.00;98761.09;3793462;77;44055;-22
2021/04/22 06:37:06;;;;;;;9.60;3.63;;;;;;;1.89;100.00;98774.53;3793058;77;44140;-23
2021/04/22 06:42:12;;;;;;;14.73;3.73;;;;;;;2.05;100.00;98773.55;3699202;79;43069;-23
2021/04/22 06:47:17;;;;;;;15.17;4.60;;;;;;;2.29;100.00;98781.27;3788929;77;44047;-24
2021/04/22 06:52:23;;;;;;;14.27;4.80;;;;;;;2.51;100.00;98787.84;3636723;80;43718;-23
2021/04/22 06:57:29;;;;;;;21.13;4.70;;;;;;;2.76;100.00;98787.05;3808650;76;42503;-24
2021/04/22 07:02:36;;;;;;;14.70;4.00;;;;;;;2.98;100.00;98790.08;3814026;76;43327;-24
2021/04/22 07:07:43;;;;;;;16.43;3.87;;;;;;;3.16;97.59;98791.97;3814632;76;43100;-23
2021/04/22 07:12:50;;;;;;;9.80;3.60;;;;;;;3.41;92.87;98784.95;3830295;76;44083;-22
2021/04/22 07:17:58;;;;;;;11.97;3.27;;;;;;;3.41;87.69;98796.94;3794205;76;43447;-23
2021/04/22 07:23:04;;;;;;;13.33;3.90;;;;;;;3.57;87.41;98804.25;3788922;77;43253;-23
2021/04/22 07:28:11;;;;;;;10.13;3.30;;;;;;;3.85;87.29;98806.28;3781382;77;44556;-23
2021/04/22 07:33:18;;;;;;;11.50;3.30;;;;;;;4.01;82.22;98806.91;3771386;77;43082;-23
2021/04/22 07:38:24;;;;;;;9.40;2.83;;;;;;;4.07;79.81;98811.41;3773141;77;44038;-22
2021/04/22 07:43:29;;;;;;;8.23;2.70;;;;;;;4.30;78.43;98801.25;3776909;77;44064;-23
2021/04/22 07:48:36;;;;;;;15.17;3.70;;;;;;;4.20;75.45;98810.89;3778756;77;44014;-23
2021/04/22 07:53:41;;;;;;;12.47;3.20;;;;;;;4.30;75.46;98805.26;3773334;77;44491;-23
2021/04/22 07:58:48;;;;;;;8.77;3.27;;;;;;;4.55;76.51;98810.13;3775888;77;42898;-23
2021/04/22 08:03:54;;;;;;;13.90;3.70;;;;;;;4.56;73.39;98805.16;3770561;77;43356;-23
2021/04/22 08:09:01;;;;;;;12.33;3.87;;;;;;;4.92;72.99;98814.55;3770822;77;44030;-23
2021/04/22 08:14:06;;;;;;;11.60;3.40;;;;;;;5.33;76.10;98803.02;3770092;77;43430;-23
2021/04/22 08:19:12;;;;;;;8.17;3.20;;;;;;;5.19;73.36;98806.27;3774809;77;44474;-23
2021/04/22 08:24:18;;;;;;;7.60;3.47;;;;;;;5.21;70.84;98809.67;3771700;77;44106;-23
2021/04/22 08:29:24;;;;;;;13.37;3.97;;;;;;;5.22;74.51;98817.19;3772506;77;44078;-23
2021/04/22 08:34:30;;;;;;;13.47;3.83;;;;;;;5.47;72.02;98810.79;3774112;77;43676;-23
2021/04/22 08:39:36;;;;;;;11.23;3.97;;;;;;;5.63;73.64;98813.14;3774024;77;43697;-23
2021/04/22 08:44:44;;;;;;;11.37;3.70;;;;;;;5.44;72.38;98814.19;3705817;78;43701;-23
2021/04/22 08:49:50;;;;;;;17.83;4.30;;;;;;;5.94;71.80;98815.22;3770071;77;43277;-23
2021/04/22 08:54:56;;;;;;;8.07;3.97;;;;;;;5.80;75.66;98819.84;3772547;77;44553;-23
2021/04/22 09:00:02;;;;;;;13.03;3.63;;;;;;;5.51;72.94;98818.11;3773131;77;44048;-23
2021/04/22 09:05:10;;;;;;;8.00;3.40;;;;;;;5.62;71.68;98819.92;3772836;77;69069;-24
2021/04/22 09:10:20;;;;;;;9.53;3.43;;;;;;;5.72;68.01;98820.91;3715905;78;43558;-24
2021/04/22 09:15:27;;;;;;;12.20;4.13;;;;;;;5.97;69.17;98822.98;3722715;79;43705;-22
2021/04/22 09:20:37;;;;;;;11.10;3.63;;;;;;;5.96;66.41;98832.84;3721557;78;44041;-25
2021/04/22 09:25:45;;;;;;;13.37;3.47;;;;;;;6.13;67.47;98832.86;3698250;79;71033;-22
2021/04/22 09:30:51;;;;;;;11.60;3.20;;;;;;;6.33;64.00;98830.39;3646890;79;44518;-22
2021/04/22 09:36:06;;;;;;;11.07;3.10;;;;;;;6.69;62.71;98827.03;3612159;81;43286;-23
2021/04/22 09:41:14;;;;;;;8.67;3.43;;;;;;;6.77;64.78;98817.03;3620048;81;44041;-25
2021/04/22 09:46:21;;;;;;;10.07;3.33;;;;;;;6.90;63.25;98817.71;3692511;79;43390;-23
2021/04/22 09:51:30;;;;;;;11.60;3.27;;;;;;;6.73;63.03;98827.15;3627567;81;43476;-23
2021/04/22 09:56:48;;;;;;;9.37;3.53;;;;;;;6.67;61.84;98818.27;3693978;79;44058;-23
2021/04/22 10:02:04;;;;;;;6.97;3.00;;;;;;;6.75;64.27;98831.03;3695150;79;44077;-23
2021/04/22 10:07:24;;;;;;;8.77;2.93;;;;;;;6.64;60.75;98814.53;3693827;79;69227;-23
2021/04/22 10:12:33;;;;;;;7.90;2.60;;;;;;;7.30;58.20;98812.16;3699822;79;43380;-23
2021/04/22 10:17:39;;;;;;;7.03;3.30;;;;;;;7.04;52.70;98821.91;3710204;79;43431;-23
2021/04/22 10:22:47;;;;;;;8.70;2.70;;;;;;;7.43;58.51;98825.85;3701692;79;43472;-23
2021/04/22 10:27:54;;;;;;;13.53;3.10;;;;;;;7.22;56.11;98810.13;3706089;79;43704;-23
2021/04/22 10:33:01;;;;;;;8.37;3.50;;;;;;;7.43;54.74;98811.94;3784115;77;43369;-24
2021/04/22 10:38:08;;;;;;;12.37;3.57;;;;;;;7.63;54.77;98802.69;3794743;77;44142;-24
2021/04/22 10:43:17;;;;;;;8.37;3.70;;;;;;;7.91;56.49;98806.49;3676944;79;43550;-23
2021/04/22 10:48:23;;;;;;;6.87;3.20;;;;;;;7.92;56.78;98800.62;3727669;78;42997;-24
2021/04/22 10:53:30;;;;;;;9.50;3.37;;;;;;;7.84;54.50;98800.81;3722315;78;43750;-23
2021/04/22 10:58:40;;;;;;;10.23;3.15;;;;;;;7.86;55.76;98797.98;3734610;78;43494;-24
2021/04/22 11:03:48;;;;;;;10.10;3.50;;;;;;;7.78;57.99;98805.36;3741400;78;44530;-24
2021/04/22 11:08:56;;;;;;;10.75;3.60;;;;;;;8.02;56.12;98809.08;3730899;78;43677;-23
2021/04/22 11:14:07;;;;;;;7.70;3.02;;;;;;;8.14;51.82;98810.31;3747747;78;44051;-24
2021/04/22 11:19:18;;;;;;;9.00;3.15;;;;;;;8.15;51.78;98791.89;3727591;78;43400;-24
2021/04/22 11:24:31;;;;;;;9.17;3.37;;;;;;;8.41;53.48;98787.37;3726434;78;43348;-24
2021/04/22 11:29:45;;;;;;;6.53;2.60;;;;;;;8.67;53.94;98797.59;3733744;78;43712;-23
2021/04/22 11:34:52;;;;;;;8.10;3.30;;;;;;;8.29;52.43;98812.13;3710002;78;43492;-24
2021/04/22 11:40:01;;;;;;;13.45;3.17;;;;;;;9.02;54.77;98792.16;3705386;79;44090;-24
2021/04/22 11:45:11;;;;;;;8.18;2.60;;;;;;;8.46;52.32;98801.20;3700160;79;43251;-23
2021/04/22 11:50:20;;;;;;;8.05;2.70;;;;;;;8.85;51.22;98797.27;3699635;79;44572;-24
2021/04/22 11:55:29;;;;;;;5.90;2.83;;;;;;;8.69;49.40;98795.61;3777900;77;43255;-24
2021/04/22 12:00:38;;;;;;;5.70;2.50;;;;;;;9.15;49.37;98798.09;3651100;80;44424;-25
2021/04/22 12:05:46;;;;;;;6.72;2.45;;;;;;;9.00;47.77;98809.77;3708289;79;44006;-22
2021/04/22 12:10:52;;;;;;;6.85;2.98;;;;;;;9.53;49.43;98802.19;3773335;77;68993;-24
2021/04/22 12:16:00;;;;;;;6.22;2.02;;;;;;;9.37;49.00;98801.45;3777132;77;44234;-25
2021/04/22 12:21:11;;;;;;;9.43;2.50;;;;;;;9.56;49.92;98796.05;3650641;80;43484;-24
2021/04/22 12:26:20;;;;;;;6.92;2.80;;;;;;;9.05;50.20;98809.34;3705445;79;44040;-24
2021/04/22 12:31:29;;;;;;;5.12;2.40;;;;;;;8.92;49.97;98797.04;3769819;77;44603;-24
2021/04/22 12:36:35;;;;;;;7.97;2.50;;;;;;;8.89;49.02;98794.63;3775667;77;44033;-24
2021/04/22 12:41:41;;;;;;;5.70;2.25;;;;;;;9.02;49.00;98796.19;3711164;78;43815;-24
2021/04/22 12:46:47;;;;;;;5.73;2.43;;;;;;;9.85;47.50;98791.05;3705551;78;43339;-24
2021/04/22 12:51:53;;;;;;;4.83;2.40;;;;;;;9.55;47.21;98787.63;3646434;80;65398;-25
2021/04/22 12:57:00;;;;;;;5.17;2.20;;;;;;;9.81;48.48;98777.56;3647085;80;43682;-25
2021/04/22 13:02:12;;;;;;;5.40;2.98;;;;;;;9.61;48.89;98789.37;3704611;79;43448;-24
2021/04/22 13:07:28;;;;;;;6.53;2.30;;;;;;;9.32;48.26;98779.03;3720457;78;44939;-24
2021/04/22 13:12:36;;;;;;;8.00;2.55;;;;;;;9.23;48.16;98799.55;3706214;79;43682;-24
2021/04/22 13:17:44;;;;;;;6.62;2.30;;;;;;;9.63;47.45;98780.66;3651212;79;44118;-23
2021/04/22 13:22:52;;;;;;;7.70;3.12;;;;;;;9.57;48.69;98780.75;3772362;77;43684;-23
2021/04/22 13:28:11;;;;;;;5.45;2.70;;;;;;;9.41;48.54;98780.02;3779396;77;43696;-23
2021/04/22 13:33:21;;;;;;;6.78;2.87;;;;;;;10.12;49.17;98773.23;3787605;77;43689;-23
2021/04/22 13:38:27;;;;;;;10.00;2.87;;;;;;;10.10;48.42;98769.84;3794885;77;43499;-23
2021/04/22 13:43:33;;;;;;;7.45;2.85;;;;;;;9.83;49.47;98764.78;3793493;77;44068;-24
2021/04/22 13:48:40;;;;;;;4.97;2.52;;;;;;;9.56;47.46;98780.39;3790968;77;44065;-23
2021/04/22 13:53:47;;;;;;;6.53;2.40;;;;;;;9.95;49.43;98764.59;3796226;77;69679;-23
2021/04/22 13:58:53;;;;;;;8.18;2.72;;;;;;;9.70;47.66;98770.52;3799178;77;43387;-25
2021/04/22 14:04:00;;;;;;;7.62;2.70;;;;;;;9.79;49.33;98761.20;3788444;77;44500;-24
2021/04/22 14:09:07;;;;;;;9.23;2.97;;;;;;;9.70;49.74;98759.75;3789994;77;69098;-24
2021/04/22 14:14:15;;;;;;;5.97;2.90;;;;;;;9.65;48.33;98769.26;3788146;77;44107;-24
2021/04/22 14:19:22;;;;;;;7.85;2.90;;;;;;;9.81;48.37;98770.84;3789968;77;43458;-24
2021/04/22 14:24:29;;;;;;;5.72;2.60;;;;;;;9.91;49.53;98768.59;3795644;77;43409;-24
2021/04/22 14:29:35;;;;;;;7.92;3.20;;;;;;;9.81;49.71;98776.70;3792984;77;43998;-25
2021/04/22 14:34:42;;;;;;;7.45;2.92;;;;;;;9.61;48.38;98771.88;3769849;77;44676;-25
2021/04/22 14:39:48;;;;;;;6.33;2.72;;;;;;;9.58;49.13;98770.84;3760510;77;44057;-25
2021/04/22 14:44:58;;;;;;;4.73;2.60;;;;;;;9.71;50.24;98767.31;3765136;77;43320;-23
2021/04/22 14:50:08;;;;;;;5.83;2.77;;;;;;;9.67;48.75;98779.38;3767829;77;44254;-23
2021/04/22 14:55:14;;;;;;;6.77;2.87;;;;;;;9.69;49.36;98768.81;3768690;77;44035;-23
2021/04/22 15:00:22;;;;;;;8.63;2.90;;;;;;;9.61;48.75;98777.26;3767696;77;44455;-24
2021/04/22 15:05:33;;;;;;;6.42;2.87;;;;;;;9.63;47.61;98792.77;3767010;77;43974;-23
2021/04/22 15:10:35;;;;;;;8.13;2.90;;;;;;;9.40;48.11;98787.25;3768338;77;43748;-24
2021/04/22 15:15:42;;;;;;;7.92;3.00;;;;;;;9.51;49.20;98800.17;3769106;77;44030;-24
2021/04/22 15:20:48;;;;;;;5.05;2.83;;;;;;;9.52;49.32;98793.29;3765566;77;42837;-24
2021/04/22 15:25:54;;;;;;;5.63;2.70;;;;;;;9.58;50.83;98800.44;3768678;77;44490;-24
2021/04/22 15:31:01;;;;;;;5.53;2.65;;;;;;;9.44;48.67;98812.00;3768483;77;44051;-24
2021/04/22 15:36:09;;;;;;;6.85;2.83;;;;;;;9.40;48.75;98809.23;3772030;77;43495;-24
2021/04/22 15:41:18;;;;;;;4.90;2.90;;;;;;;9.46;48.74;98810.50;3775013;77;26282;-24
2021/04/22 15:46:26;;;;;;;7.03;2.77;;;;;;;9.44;49.74;98809.31;3774668;77;42989;-25
2021/04/22 15:51:36;;;;;;;5.40;2.87;;;;;;;9.24;48.30;98812.01;3776128;77;43249;-25
2021/04/22 15:56:44;;;;;;;7.50;3.08;;;;;;;9.23;49.30;98822.91;3771742;77;43671;-23
2021/04/22 16:01:51;;;;;;;7.42;3.25;;;;;;;9.32;49.98;98822.56;3776657;77;44455;-24
2021/04/22 16:06:57;;;;;;;10.40;3.25;;;;;;;9.19;48.26;98826.39;3772803;77;44010;-24
2021/04/22 16:12:03;;;;;;;9.73;2.87;;;;;;;9.23;49.39;98827.78;3654993;80;44059;-25
2021/04/22 16:17:10;;;;;;;6.22;2.83;;;;;;;9.17;50.08;98833.75;3695831;79;44194;-25
2021/04/22 16:22:16;;;;;;;7.77;2.70;;;;;;;9.10;49.84;98844.22;3695290;79;44019;-24
2021/04/22 16:27:22;;;;;;;11.48;3.10;;;;;;;9.10;50.20;98842.03;3695745;79;43736;-25
2021/04/22 16:32:32;;;;;;;8.28;2.92;;;;;;;9.06;50.05;98847.33;3699081;79;44109;-25
2021/04/22 16:37:38;;;;;;;5.90;2.80;;;;;;;9.00;48.90;98853.25;3775522;77;43012;-23
2021/04/22 16:42:45;;;;;;;8.75;3.20;;;;;;;8.99;50.73;98852.41;3771396;77;43796;-24
2021/04/22 16:47:52;;;;;;;5.87;2.50;;;;;;;9.03;51.51;98861.05;3773432;77;44058;-25
2021/04/22 16:52:58;;;;;;;6.00;2.65;;;;;;;8.98;49.52;98861.97;3644970;80;43377;-25
2021/04/22 16:58:05;;;;;;;6.30;2.40;;;;;;;8.97;49.53;98865.65;3705761;79;69015;-23
2021/04/22 17:03:13;;;;;;;7.17;2.40;;;;;;;8.92;50.15;98865.56;3658436;80;44455;-24
2021/04/22 17:08:20;;;;;;;4.70;2.50;;;;;;;8.90;49.97;98872.07;3718880;79;44054;-24
2021/04/22 17:13:29;;;;;;;6.92;2.80;;;;;;;8.92;51.18;98881.69;3705173;79;43344;-24
2021/04/22 17:18:34;;;;;;;8.05;2.55;;;;;;;8.89;51.88;98870.38;3707730;79;43432;-24
2021/04/22 17:23:42;;;;;;;9.88;2.70;;;;;;;8.76;48.68;98878.20;3700397;79;44005;-24
2021/04/22 17:28:48;;;;;;;5.90;2.87;;;;;;;8.81;50.14;98879.63;3775430;77;44186;-24
2021/04/22 17:33:55;;;;;;;5.78;2.27;;;;;;;8.76;49.90;98876.02;3773204;77;44195;-24
2021/04/22 17:39:09;;;;;;;10.20;2.60;;;;;;;8.71;49.06;98889.00;3762520;77;43361;-24
2021/04/22 17:44:18;;;;;;;9.10;2.58;;;;;;;8.68;50.03;98890.14;3768784;77;43392;-24
2021/04/22 17:49:24;;;;;;;6.60;2.47;;;;;;;8.70;50.75;98887.30;3612671;80;43396;-24
2021/04/22 17:54:30;;;;;;;7.70;2.45;;;;;;;8.61;51.37;98897.89;3762764;77;44112;-24
2021/04/22 17:59:36;;;;;;;5.92;2.50;;;;;;;8.58;49.62;98895.47;3762469;77;43702;-24
2021/04/22 18:04:42;;;;;;;9.48;2.80;;;;;;;8.53;49.81;98903.08;3760885;77;44026;-24
2021/04/22 18:09:48;;;;;;;4.80;2.20;;;;;;;8.53;50.12;98912.48;3759044;77;44100;-24
2021/04/22 18:14:54;;;;;;;7.33;3.03;;;;;;;8.49;52.19;98905.70;3758447;77;43737;-24
2021/04/22 18:20:01;;;;;;;8.50;2.55;;;;;;;8.40;50.74;98919.41;3760009;77;43689;-24
2021/04/22 18:25:11;;;;;;;9.83;2.52;;;;;;;8.32;50.89;98927.30;3753000;77;44059;-24
2021/04/22 18:30:20;;;;;;;4.97;2.70;;;;;;;8.28;52.75;98926.72;3755842;77;43242;-24
2021/04/22 18:35:27;;;;;;;8.33;2.70;;;;;;;8.19;52.62;98935.55;3758005;77;43689;-24
2021/04/22 18:40:33;;;;;;;7.03;3.15;;;;;;;8.16;52.49;98937.17;3758738;77;44059;-24
2021/04/22 18:45:39;;;;;;;5.03;2.80;;;;;;;8.08;52.77;98943.68;3753760;77;43727;-24
2021/04/22 18:50:46;;;;;;;7.93;2.90;;;;;;;8.00;53.56;98949.23;3770052;77;44082;-24
2021/04/22 18:55:52;;;;;;;6.55;3.00;;;;;;;7.96;53.62;98963.05;3750534;77;44072;-24
2021/04/22 19:00:58;;;;;;;5.57;2.90;;;;;;;7.87;54.25;98966.01;3766014;77;44121;-23
2021/04/22 19:06:04;;;;;;;7.03;3.00;;;;;;;7.86;55.78;98968.33;3761048;77;44421;-24
2021/04/22 19:11:11;;;;;;;9.43;3.17;;;;;;;7.76;57.09;98975.46;3759499;77;43622;-23
2021/04/22 19:16:17;;;;;;;9.15;2.87;;;;;;;7.68;56.02;98975.62;3764258;77;43651;-23
2021/04/22 19:21:23;;;;;;;8.83;2.93;;;;;;;7.67;56.64;98987.33;3762832;77;44703;-23
2021/04/22 19:26:28;;;;;;;8.20;4.03;;;;;;;7.58;58.27;98988.58;3760507;77;43748;-23
2021/04/22 19:31:35;;;;;;;7.53;3.20;;;;;;;7.49;59.13;98993.74;3764675;77;44434;-23
2021/04/22 19:36:41;;;;;;;6.58;3.37;;;;;;;7.40;60.03;99002.05;3780514;77;43712;-24
2021/04/22 19:41:47;;;;;;;8.90;3.50;;;;;;;7.40;59.96;99008.75;3782144;77;43315;-24
2021/04/22 19:46:53;;;;;;;6.77;3.00;;;;;;;7.37;59.82;99002.30;3647566;80;44037;-24
2021/04/22 19:51:59;;;;;;;7.30;3.00;;;;;;;7.32;59.99;99009.88;3706539;79;69099;-24
2021/04/22 19:57:07;;;;;;;7.15;3.33;;;;;;;7.23;60.33;99007.97;3654502;80;44532;-24
2021/04/22 20:02:14;;;;;;;9.13;2.83;;;;;;;7.18;60.75;99015.52;3704934;79;44005;-23
2021/04/22 20:07:21;;;;;;;6.97;2.83;;;;;;;7.05;59.42;99019.19;3717067;78;43707;-23
2021/04/22 20:12:27;;;;;;;5.57;2.77;;;;;;;7.02;60.38;99023.95;3704207;79;43398;-23
2021/04/22 20:17:33;;;;;;;8.03;3.33;;;;;;;6.95;60.53;99027.61;3785242;77;44050;-24
2021/04/22 20:22:41;;;;;;;7.95;3.27;;;;;;;6.85;61.81;99026.64;3777795;77;43225;-24
2021/04/22 20:27:47;;;;;;;5.20;2.60;;;;;;;6.73;61.59;99033.34;3782781;77;44054;-23
2021/04/22 20:32:55;;;;;;;6.20;2.80;;;;;;;6.75;61.33;99038.56;3769989;77;43274;-23
2021/04/22 20:38:08;;;;;;;4.13;2.70;;;;;;;6.64;60.91;99039.43;3773280;77;73209;-23
2021/04/22 20:43:14;;;;;;;8.60;2.33;;;;;;;6.61;60.16;99043.18;3768848;77;44016;-23
2021/04/22 20:48:20;;;;;;;7.63;2.57;;;;;;;6.60;60.86;99044.15;3769198;77;44049;-23
2021/04/22 20:53:26;;;;;;;4.47;2.37;;;;;;;6.52;59.26;99047.09;3685125;79;44468;-25
2021/04/22 20:58:32;;;;;;;4.17;2.37;;;;;;;6.49;61.23;99056.19;3757677;77;44059;-27
2021/04/22 21:03:40;;;;;;;5.77;2.37;;;;;;;6.50;61.10;99051.70;3756138;77;43665;-26
2021/04/22 21:08:46;;;;;;;11.50;3.37;;;;;;;6.48;61.34;99055.34;3760460;77;43990;-26
2021/04/22 21:13:53;;;;;;;8.23;2.33;;;;;;;6.30;60.04;99052.74;3765450;77;43319;-26
2021/04/22 21:19:00;;;;;;;5.20;2.20;;;;;;;6.26;61.52;99052.62;3773533;77;43738;-26
2021/04/22 21:24:08;;;;;;;6.23;2.90;;;;;;;6.07;62.98;99047.34;3783202;77;43365;-26
2021/04/22 21:29:18;;;;;;;3.77;2.33;;;;;;;5.96;62.81;99046.80;3781769;77;44045;-26
2021/04/22 21:34:25;;;;;;;6.33;2.50;;;;;;;5.97;62.56;99049.84;3780895;77;43456;-26
2021/04/22 21:39:32;;;;;;;3.67;2.50;;;;;;;5.98;63.83;99052.02;3715445;78;43318;-25
2021/04/22 21:44:41;;;;;;;6.13;2.57;;;;;;;5.79;64.49;99052.09;3708884;79;43612;-25
2021/04/22 21:49:48;;;;;;;7.43;2.60;;;;;;;5.69;64.68;99047.06;3715778;79;44170;-25
2021/04/22 21:54:56;;;;;;;6.87;2.50;;;;;;;5.64;65.67;99054.09;3710592;79;43374;-25
2021/04/22 22:00:02;;;;;;;4.57;2.50;;;;;;;5.59;65.90;99051.36;3713827;79;43381;-25
2021/04/22 22:05:11;;;;;;;5.97;2.60;;;;;;;5.57;66.08;99050.66;3701391;79;26416;-26
2021/04/22 22:10:18;;;;;;;5.77;3.00;;;;;;;5.40;67.73;99050.06;3704591;79;43717;-26
2021/04/22 22:15:25;;;;;;;7.57;2.83;;;;;;;5.19;69.26;99049.34;3703173;79;43423;-24
2021/04/22 22:20:31;;;;;;;6.30;2.43;;;;;;;5.07;70.52;99060.91;3636392;81;43245;-26
2021/04/22 22:25:37;;;;;;;5.80;2.77;;;;;;;5.02;70.75;99055.91;3610962;81;44016;-26
2021/04/22 22:30:45;;;;;;;6.40;2.30;;;;;;;5.00;70.87;99065.00;3637546;81;44109;-25
2021/04/22 22:35:51;;;;;;;6.23;2.80;;;;;;;5.02;71.09;99065.72;3702385;77;44633;-25
2021/04/22 22:40:57;;;;;;;5.73;2.97;;;;;;;4.83;72.53;99064.37;3789241;77;43697;-25
2021/04/22 22:46:04;;;;;;;6.13;2.73;;;;;;;4.72;73.33;99070.95;3785405;77;43478;-25
2021/04/22 22:51:11;;;;;;;8.53;2.90;;;;;;;4.61;74.02;99069.89;3783343;77;43767;-25
2021/04/22 22:56:17;;;;;;;5.53;2.70;;;;;;;4.54;74.33;99079.77;3660330;80;43144;-25
2021/04/22 23:01:23;;;;;;;7.43;2.77;;;;;;;4.45;74.83;99089.25;3714225;79;43287;-25
2021/04/22 23:06:31;;;;;;;6.43;2.80;;;;;;;4.33;76.22;99082.97;3711244;79;43689;-25
2021/04/22 23:11:37;;;;;;;8.10;3.13;;;;;;;4.20;77.29;99082.92;3773828;77;43480;-25
2021/04/22 23:16:43;;;;;;;6.43;2.63;;;;;;;4.07;79.19;99088.71;3782108;77;44049;-25
2021/04/22 23:21:50;;;;;;;7.57;2.97;;;;;;;3.85;80.11;99090.16;3771850;77;43707;-25
2021/04/22 23:26:56;;;;;;;9.23;3.23;;;;;;;3.80;80.95;99089.62;3714318;79;44253;-25
2021/04/22 23:32:02;;;;;;;5.07;3.07;;;;;;;3.70;81.76;99094.20;3716627;78;44390;-25
2021/04/22 23:37:08;;;;;;;6.60;3.00;;;;;;;3.70;82.83;99090.70;3720586;79;43734;-25
2021/04/22 23:42:14;;;;;;;4.20;2.90;;;;;;;3.64;83.26;99078.63;3689776;79;43036;-25
2021/04/22 23:47:20;;;;;;;7.03;2.80;;;;;;;3.89;82.22;99081.01;3715514;79;44082;-25
2021/04/22 23:52:26;;;;;;;4.80;2.63;;;;;;;3.99;81.85;99083.43;3787390;77;43294;-25
2021/04/22 23:57:32;;;;;;;7.87;3.00;;;;;;;3.96;82.20;99080.96;3779009;77;43151;-25
